sensor_id;sensor_type;location;lat;lon;timestamp;P1;durP1;ratioP1;P2;durP2;ratioP2
41903;SDS011;27586;51.124;4.182;2023-02-01T00:01:10;19.45;;;9.48;;
41903;SDS011;27586;51.124;4.182;2023-02-01T00:03:35;23.35;;;8.75;;
41903;SDS011;27586;51.124;4.182;2023-02-01T00:06:02;22.17;;;9.43;;
41903;SDS011;27586;51.124;4.182;2023-02-01T00:08:27;26.20;;;10.00;;
41903;SDS011;27586;51.124;4.182;2023-02-01T00:11:03;22.63;;;9.52;;
41903;SDS011;27586;51.124;4.182;2023-02-01T00:13:32;21.33;;;9.68;;
41903;SDS011;27586;51.124;4.182;2023-02-01T00:16:09;22.92;;;9.05;;
41903;SDS011;27586;51.124;4.182;2023-02-01T00:18:41;24.75;;;9.27;;
41903;SDS011;27586;51.124;4.182;2023-02-01T00:21:07;22.45;;;9.10;;
41903;SDS011;27586;51.124;4.182;2023-02-01T00:23:35;20.83;;;8.43;;
41903;SDS011;27586;51.124;4.182;2023-02-01T00:26:02;19.48;;;10.40;;
41903;SDS011;27586;51.124;4.182;2023-02-01T00:28:29;19.08;;;8.18;;
41903;SDS011;27586;51.124;4.182;2023-02-01T00:30:59;21.60;;;8.18;;
41903;SDS011;27586;51.124;4.182;2023-02-01T00:33:27;24.40;;;8.13;;
41903;SDS011;27586;51.124;4.182;2023-02-01T00:36:00;23.13;;;7.47;;
41903;SDS011;27586;51.124;4.182;2023-02-01T00:38:28;18.42;;;7.35;;
41903;SDS011;27586;51.124;4.182;2023-02-01T00:40:54;27.55;;;9.38;;
41903;SDS011;27586;51.124;4.182;2023-02-01T00:43:26;18.70;;;6.82;;
41903;SDS011;27586;51.124;4.182;2023-02-01T00:45:52;20.45;;;7.38;;
41903;SDS011;27586;51.124;4.182;2023-02-01T00:48:18;19.65;;;7.32;;
41903;SDS011;27586;51.124;4.182;2023-02-01T00:50:43;23.92;;;6.93;;
41903;SDS011;27586;51.124;4.182;2023-02-01T00:53:10;21.50;;;7.05;;
41903;SDS011;27586;51.124;4.182;2023-02-01T00:55:36;19.58;;;7.28;;
41903;SDS011;27586;51.124;4.182;2023-02-01T00:58:02;19.90;;;6.75;;
41903;SDS011;27586;51.124;4.182;2023-02-01T01:00:30;31.20;;;6.93;;
41903;SDS011;27586;51.124;4.182;2023-02-01T01:02:57;17.00;;;7.40;;
41903;SDS011;27586;51.124;4.182;2023-02-01T01:05:22;19.80;;;6.57;;
41903;SDS011;27586;51.124;4.182;2023-02-01T01:07:48;20.73;;;5.93;;
41903;SDS011;27586;51.124;4.182;2023-02-01T01:10:14;22.45;;;6.30;;
41903;SDS011;27586;51.124;4.182;2023-02-01T01:12:40;15.88;;;6.35;;
41903;SDS011;27586;51.124;4.182;2023-02-01T01:15:06;25.60;;;8.32;;
41903;SDS011;27586;51.124;4.182;2023-02-01T01:17:32;24.60;;;7.72;;
41903;SDS011;27586;51.124;4.182;2023-02-01T01:19:58;17.67;;;6.65;;
41903;SDS011;27586;51.124;4.182;2023-02-01T01:22:24;22.52;;;5.82;;
41903;SDS011;27586;51.124;4.182;2023-02-01T01:24:50;25.38;;;6.40;;
41903;SDS011;27586;51.124;4.182;2023-02-01T01:27:15;19.58;;;6.88;;
41903;SDS011;27586;51.124;4.182;2023-02-01T01:29:47;19.38;;;5.07;;
41903;SDS011;27586;51.124;4.182;2023-02-01T01:32:13;18.98;;;6.00;;
41903;SDS011;27586;51.124;4.182;2023-02-01T01:34:39;19.13;;;5.50;;
41903;SDS011;27586;51.124;4.182;2023-02-01T01:37:04;18.23;;;5.28;;
41903;SDS011;27586;51.124;4.182;2023-02-01T01:39:30;18.52;;;5.07;;
41903;SDS011;27586;51.124;4.182;2023-02-01T01:41:56;16.27;;;5.38;;
41903;SDS011;27586;51.124;4.182;2023-02-01T01:47:26;15.73;;;5.00;;
41903;SDS011;27586;51.124;4.182;2023-02-01T01:49:58;17.60;;;5.07;;
41903;SDS011;27586;51.124;4.182;2023-02-01T01:52:25;16.17;;;4.50;;
41903;SDS011;27586;51.124;4.182;2023-02-01T01:54:51;19.00;;;5.03;;
41903;SDS011;27586;51.124;4.182;2023-02-01T01:57:19;18.17;;;5.97;;
41903;SDS011;27586;51.124;4.182;2023-02-01T02:00:00;18.88;;;4.82;;
41903;SDS011;27586;51.124;4.182;2023-02-01T02:02:33;18.30;;;4.65;;
41903;SDS011;27586;51.124;4.182;2023-02-01T02:05:00;19.13;;;5.00;;
41903;SDS011;27586;51.124;4.182;2023-02-01T02:07:28;17.50;;;5.55;;
41903;SDS011;27586;51.124;4.182;2023-02-01T02:09:57;17.13;;;5.03;;
41903;SDS011;27586;51.124;4.182;2023-02-01T02:12:22;20.95;;;5.70;;
41903;SDS011;27586;51.124;4.182;2023-02-01T02:14:48;16.73;;;4.57;;
41903;SDS011;27586;51.124;4.182;2023-02-01T02:17:36;20.15;;;4.90;;
41903;SDS011;27586;51.124;4.182;2023-02-01T02:34:15;20.13;;;4.75;;
41903;SDS011;27586;51.124;4.182;2023-02-01T02:39:51;20.02;;;5.18;;
41903;SDS011;27586;51.124;4.182;2023-02-01T02:45:41;14.48;;;4.05;;
41903;SDS011;27586;51.124;4.182;2023-02-01T02:51:35;17.75;;;4.10;;
41903;SDS011;27586;51.124;4.182;2023-02-01T02:54:29;18.42;;;4.35;;
41903;SDS011;27586;51.124;4.182;2023-02-01T03:00:04;17.50;;;4.15;;
41903;SDS011;27586;51.124;4.182;2023-02-01T03:02:52;17.85;;;4.13;;
41903;SDS011;27586;51.124;4.182;2023-02-01T03:05:39;16.40;;;4.82;;
41903;SDS011;27586;51.124;4.182;2023-02-01T03:08:10;17.05;;;4.32;;
41903;SDS011;27586;51.124;4.182;2023-02-01T03:11:12;19.80;;;4.95;;
41903;SDS011;27586;51.124;4.182;2023-02-01T03:16:26;18.17;;;4.30;;
41903;SDS011;27586;51.124;4.182;2023-02-01T03:21:46;20.40;;;5.50;;
41903;SDS011;27586;51.124;4.182;2023-02-01T03:32:48;14.32;;;4.20;;
41903;SDS011;27586;51.124;4.182;2023-02-01T03:38:01;16.88;;;4.78;;
41903;SDS011;27586;51.124;4.182;2023-02-01T03:40:46;17.65;;;4.20;;
41903;SDS011;27586;51.124;4.182;2023-02-01T03:43:16;16.05;;;4.32;;
41903;SDS011;27586;51.124;4.182;2023-02-01T03:45:46;13.18;;;4.38;;
41903;SDS011;27586;51.124;4.182;2023-02-01T03:48:17;19.73;;;4.53;;
41903;SDS011;27586;51.124;4.182;2023-02-01T03:50:47;18.58;;;5.05;;
41903;SDS011;27586;51.124;4.182;2023-02-01T03:53:18;21.20;;;4.63;;
41903;SDS011;27586;51.124;4.182;2023-02-01T03:55:47;17.73;;;4.93;;
41903;SDS011;27586;51.124;4.182;2023-02-01T03:58:15;16.83;;;4.28;;
41903;SDS011;27586;51.124;4.182;2023-02-01T04:00:44;18.27;;;4.70;;
41903;SDS011;27586;51.124;4.182;2023-02-01T04:03:14;19.45;;;6.47;;
41903;SDS011;27586;51.124;4.182;2023-02-01T04:05:40;17.27;;;4.93;;
41903;SDS011;27586;51.124;4.182;2023-02-01T04:08:06;17.95;;;4.22;;
41903;SDS011;27586;51.124;4.182;2023-02-01T04:10:32;19.08;;;5.28;;
41903;SDS011;27586;51.124;4.182;2023-02-01T04:12:57;19.00;;;4.35;;
41903;SDS011;27586;51.124;4.182;2023-02-01T04:15:23;21.83;;;5.75;;
41903;SDS011;27586;51.124;4.182;2023-02-01T04:17:49;17.40;;;5.07;;
41903;SDS011;27586;51.124;4.182;2023-02-01T04:20:15;19.42;;;4.47;;
41903;SDS011;27586;51.124;4.182;2023-02-01T04:22:40;22.65;;;5.43;;
41903;SDS011;27586;51.124;4.182;2023-02-01T04:25:06;21.08;;;4.95;;
41903;SDS011;27586;51.124;4.182;2023-02-01T04:27:33;17.67;;;5.80;;
41903;SDS011;27586;51.124;4.182;2023-02-01T04:29:58;21.75;;;4.78;;
41903;SDS011;27586;51.124;4.182;2023-02-01T04:32:24;23.48;;;4.72;;
41903;SDS011;27586;51.124;4.182;2023-02-01T04:34:50;18.35;;;5.18;;
41903;SDS011;27586;51.124;4.182;2023-02-01T04:37:15;16.70;;;4.18;;
41903;SDS011;27586;51.124;4.182;2023-02-01T04:39:41;19.95;;;4.47;;
41903;SDS011;27586;51.124;4.182;2023-02-01T04:42:07;20.50;;;4.35;;
41903;SDS011;27586;51.124;4.182;2023-02-01T04:44:33;15.13;;;4.43;;
41903;SDS011;27586;51.124;4.182;2023-02-01T04:46:59;17.42;;;5.78;;
41903;SDS011;27586;51.124;4.182;2023-02-01T04:49:25;17.63;;;4.65;;
41903;SDS011;27586;51.124;4.182;2023-02-01T04:51:51;18.05;;;4.63;;
41903;SDS011;27586;51.124;4.182;2023-02-01T04:54:17;21.45;;;4.93;;
41903;SDS011;27586;51.124;4.182;2023-02-01T04:56:43;15.70;;;4.13;;
41903;SDS011;27586;51.124;4.182;2023-02-01T04:59:10;17.85;;;5.03;;
41903;SDS011;27586;51.124;4.182;2023-02-01T05:01:36;20.65;;;5.10;;
41903;SDS011;27586;51.124;4.182;2023-02-01T05:04:02;18.92;;;4.65;;
41903;SDS011;27586;51.124;4.182;2023-02-01T05:06:27;22.75;;;4.95;;
41903;SDS011;27586;51.124;4.182;2023-02-01T05:08:53;20.30;;;5.03;;
41903;SDS011;27586;51.124;4.182;2023-02-01T05:11:19;20.77;;;4.43;;
41903;SDS011;27586;51.124;4.182;2023-02-01T05:14:03;19.02;;;4.70;;
41903;SDS011;27586;51.124;4.182;2023-02-01T05:16:28;19.35;;;4.78;;
41903;SDS011;27586;51.124;4.182;2023-02-01T05:18:54;15.63;;;4.20;;
41903;SDS011;27586;51.124;4.182;2023-02-01T05:21:20;18.58;;;6.15;;
41903;SDS011;27586;51.124;4.182;2023-02-01T05:23:45;18.98;;;4.35;;
41903;SDS011;27586;51.124;4.182;2023-02-01T05:26:30;22.52;;;5.22;;
41903;SDS011;27586;51.124;4.182;2023-02-01T05:28:55;18.85;;;4.50;;
41903;SDS011;27586;51.124;4.182;2023-02-01T05:31:22;18.08;;;4.72;;
41903;SDS011;27586;51.124;4.182;2023-02-01T05:33:48;22.88;;;4.70;;
41903;SDS011;27586;51.124;4.182;2023-02-01T05:36:14;19.00;;;4.47;;
41903;SDS011;27586;51.124;4.182;2023-02-01T05:38:40;20.60;;;5.00;;
41903;SDS011;27586;51.124;4.182;2023-02-01T05:41:06;15.43;;;4.60;;
41903;SDS011;27586;51.124;4.182;2023-02-01T05:43:31;16.13;;;4.15;;
41903;SDS011;27586;51.124;4.182;2023-02-01T05:45:57;19.30;;;5.20;;
41903;SDS011;27586;51.124;4.182;2023-02-01T05:48:23;19.35;;;4.68;;
41903;SDS011;27586;51.124;4.182;2023-02-01T05:50:49;19.52;;;4.50;;
41903;SDS011;27586;51.124;4.182;2023-02-01T05:53:14;19.05;;;5.18;;
41903;SDS011;27586;51.124;4.182;2023-02-01T05:55:41;21.77;;;5.13;;
41903;SDS011;27586;51.124;4.182;2023-02-01T05:58:07;19.38;;;5.10;;
41903;SDS011;27586;51.124;4.182;2023-02-01T06:00:33;18.27;;;5.07;;
41903;SDS011;27586;51.124;4.182;2023-02-01T06:02:58;16.08;;;4.90;;
41903;SDS011;27586;51.124;4.182;2023-02-01T06:05:24;22.08;;;4.75;;
41903;SDS011;27586;51.124;4.182;2023-02-01T06:07:50;21.08;;;4.70;;
41903;SDS011;27586;51.124;4.182;2023-02-01T06:10:19;20.50;;;4.82;;
41903;SDS011;27586;51.124;4.182;2023-02-01T06:12:45;21.75;;;5.72;;
41903;SDS011;27586;51.124;4.182;2023-02-01T06:15:11;17.60;;;5.47;;
41903;SDS011;27586;51.124;4.182;2023-02-01T06:17:40;19.65;;;5.10;;
41903;SDS011;27586;51.124;4.182;2023-02-01T06:20:08;18.67;;;5.13;;
41903;SDS011;27586;51.124;4.182;2023-02-01T06:22:35;24.02;;;5.07;;
41903;SDS011;27586;51.124;4.182;2023-02-01T06:25:01;22.77;;;5.60;;
41903;SDS011;27586;51.124;4.182;2023-02-01T06:27:30;23.35;;;5.25;;
41903;SDS011;27586;51.124;4.182;2023-02-01T06:29:57;17.63;;;4.30;;
41903;SDS011;27586;51.124;4.182;2023-02-01T06:32:22;18.95;;;4.63;;
41903;SDS011;27586;51.124;4.182;2023-02-01T06:34:48;16.17;;;4.90;;
41903;SDS011;27586;51.124;4.182;2023-02-01T06:37:14;21.15;;;5.03;;
41903;SDS011;27586;51.124;4.182;2023-02-01T06:39:40;18.02;;;4.55;;
41903;SDS011;27586;51.124;4.182;2023-02-01T06:42:06;18.45;;;5.65;;
41903;SDS011;27586;51.124;4.182;2023-02-01T06:44:31;20.48;;;4.10;;
41903;SDS011;27586;51.124;4.182;2023-02-01T06:46:57;17.65;;;4.88;;
41903;SDS011;27586;51.124;4.182;2023-02-01T06:49:23;18.88;;;4.78;;
41903;SDS011;27586;51.124;4.182;2023-02-01T06:51:48;17.75;;;4.50;;
41903;SDS011;27586;51.124;4.182;2023-02-01T06:54:14;19.55;;;6.53;;
41903;SDS011;27586;51.124;4.182;2023-02-01T06:56:40;25.20;;;6.85;;
41903;SDS011;27586;51.124;4.182;2023-02-01T06:59:06;21.00;;;5.28;;
41903;SDS011;27586;51.124;4.182;2023-02-01T07:01:33;20.50;;;4.70;;
41903;SDS011;27586;51.124;4.182;2023-02-01T07:03:59;18.13;;;5.03;;
41903;SDS011;27586;51.124;4.182;2023-02-01T07:06:25;17.40;;;4.80;;
41903;SDS011;27586;51.124;4.182;2023-02-01T07:08:50;18.30;;;4.82;;
41903;SDS011;27586;51.124;4.182;2023-02-01T07:11:17;18.52;;;5.07;;
41903;SDS011;27586;51.124;4.182;2023-02-01T07:13:43;18.38;;;4.88;;
41903;SDS011;27586;51.124;4.182;2023-02-01T07:16:10;19.13;;;4.93;;
41903;SDS011;27586;51.124;4.182;2023-02-01T07:18:37;21.77;;;5.03;;
41903;SDS011;27586;51.124;4.182;2023-02-01T07:21:03;22.90;;;5.18;;
41903;SDS011;27586;51.124;4.182;2023-02-01T07:23:29;21.70;;;4.88;;
41903;SDS011;27586;51.124;4.182;2023-02-01T07:25:55;19.38;;;5.05;;
41903;SDS011;27586;51.124;4.182;2023-02-01T07:28:22;18.02;;;5.00;;
41903;SDS011;27586;51.124;4.182;2023-02-01T07:30:49;21.42;;;4.72;;
41903;SDS011;27586;51.124;4.182;2023-02-01T07:33:22;18.52;;;4.72;;
41903;SDS011;27586;51.124;4.182;2023-02-01T07:35:49;16.70;;;5.15;;
41903;SDS011;27586;51.124;4.182;2023-02-01T07:38:15;13.40;;;4.60;;
41903;SDS011;27586;51.124;4.182;2023-02-01T07:40:41;12.48;;;4.03;;
41903;SDS011;27586;51.124;4.182;2023-02-01T07:43:07;21.33;;;4.93;;
41903;SDS011;27586;51.124;4.182;2023-02-01T07:45:36;16.30;;;4.47;;
41903;SDS011;27586;51.124;4.182;2023-02-01T07:48:02;19.92;;;5.20;;
41903;SDS011;27586;51.124;4.182;2023-02-01T07:50:28;18.17;;;4.32;;
41903;SDS011;27586;51.124;4.182;2023-02-01T07:52:54;20.98;;;5.03;;
41903;SDS011;27586;51.124;4.182;2023-02-01T07:55:20;17.85;;;4.93;;
41903;SDS011;27586;51.124;4.182;2023-02-01T07:57:46;19.13;;;5.50;;
41903;SDS011;27586;51.124;4.182;2023-02-01T08:00:12;21.92;;;5.18;;
41903;SDS011;27586;51.124;4.182;2023-02-01T08:02:57;16.75;;;5.30;;
41903;SDS011;27586;51.124;4.182;2023-02-01T08:05:26;19.15;;;5.53;;
41903;SDS011;27586;51.124;4.182;2023-02-01T08:07:52;20.02;;;4.90;;
41903;SDS011;27586;51.124;4.182;2023-02-01T08:10:18;19.85;;;5.53;;
41903;SDS011;27586;51.124;4.182;2023-02-01T08:12:44;17.88;;;5.50;;
41903;SDS011;27586;51.124;4.182;2023-02-01T08:15:13;19.85;;;5.22;;
41903;SDS011;27586;51.124;4.182;2023-02-01T08:17:45;17.98;;;4.88;;
41903;SDS011;27586;51.124;4.182;2023-02-01T08:20:11;22.30;;;5.65;;
41903;SDS011;27586;51.124;4.182;2023-02-01T08:22:38;20.65;;;6.38;;
41903;SDS011;27586;51.124;4.182;2023-02-01T08:25:04;24.58;;;6.57;;
41903;SDS011;27586;51.124;4.182;2023-02-01T08:27:32;22.35;;;6.55;;
41903;SDS011;27586;51.124;4.182;2023-02-01T08:29:58;20.80;;;6.35;;
41903;SDS011;27586;51.124;4.182;2023-02-01T08:32:25;18.60;;;5.70;;
41903;SDS011;27586;51.124;4.182;2023-02-01T08:34:51;21.25;;;5.75;;
41903;SDS011;27586;51.124;4.182;2023-02-01T08:37:16;25.83;;;5.50;;
41903;SDS011;27586;51.124;4.182;2023-02-01T08:39:42;18.30;;;6.85;;
41903;SDS011;27586;51.124;4.182;2023-02-01T08:42:12;19.58;;;5.50;;
41903;SDS011;27586;51.124;4.182;2023-02-01T08:44:56;22.08;;;5.80;;
41903;SDS011;27586;51.124;4.182;2023-02-01T08:47:22;16.33;;;5.40;;
41903;SDS011;27586;51.124;4.182;2023-02-01T08:49:48;20.25;;;5.75;;
41903;SDS011;27586;51.124;4.182;2023-02-01T08:52:13;18.08;;;5.20;;
41903;SDS011;27586;51.124;4.182;2023-02-01T08:54:42;20.60;;;5.22;;
41903;SDS011;27586;51.124;4.182;2023-02-01T08:57:08;20.13;;;5.45;;
41903;SDS011;27586;51.124;4.182;2023-02-01T08:59:34;19.52;;;5.47;;
41903;SDS011;27586;51.124;4.182;2023-02-01T09:02:00;17.35;;;5.47;;
41903;SDS011;27586;51.124;4.182;2023-02-01T09:04:26;21.15;;;6.38;;
41903;SDS011;27586;51.124;4.182;2023-02-01T09:06:52;18.77;;;6.57;;
41903;SDS011;27586;51.124;4.182;2023-02-01T09:09:20;21.80;;;6.15;;
41903;SDS011;27586;51.124;4.182;2023-02-01T09:11:46;17.60;;;4.78;;
41903;SDS011;27586;51.124;4.182;2023-02-01T09:14:12;19.98;;;4.60;;
41903;SDS011;27586;51.124;4.182;2023-02-01T09:16:38;24.00;;;6.43;;
41903;SDS011;27586;51.124;4.182;2023-02-01T09:19:03;20.00;;;5.70;;
41903;SDS011;27586;51.124;4.182;2023-02-01T09:21:29;22.55;;;5.90;;
41903;SDS011;27586;51.124;4.182;2023-02-01T09:23:55;17.30;;;5.85;;
41903;SDS011;27586;51.124;4.182;2023-02-01T09:26:21;21.42;;;5.35;;
41903;SDS011;27586;51.124;4.182;2023-02-01T09:28:46;22.67;;;6.65;;
41903;SDS011;27586;51.124;4.182;2023-02-01T09:31:12;17.63;;;5.82;;
41903;SDS011;27586;51.124;4.182;2023-02-01T09:33:37;16.92;;;5.20;;
41903;SDS011;27586;51.124;4.182;2023-02-01T09:36:05;15.52;;;5.32;;
41903;SDS011;27586;51.124;4.182;2023-02-01T09:38:31;22.10;;;6.03;;
41903;SDS011;27586;51.124;4.182;2023-02-01T09:40:57;17.55;;;5.88;;
41903;SDS011;27586;51.124;4.182;2023-02-01T09:43:45;17.58;;;5.53;;
41903;SDS011;27586;51.124;4.182;2023-02-01T09:46:31;19.60;;;5.20;;
41903;SDS011;27586;51.124;4.182;2023-02-01T09:49:01;16.40;;;5.80;;
41903;SDS011;27586;51.124;4.182;2023-02-01T09:51:44;15.25;;;5.75;;
41903;SDS011;27586;51.124;4.182;2023-02-01T09:54:15;15.00;;;4.75;;
41903;SDS011;27586;51.124;4.182;2023-02-01T09:57:00;19.88;;;5.90;;
41903;SDS011;27586;51.124;4.182;2023-02-01T09:59:39;19.73;;;4.85;;
41903;SDS011;27586;51.124;4.182;2023-02-01T10:02:15;20.90;;;5.93;;
41903;SDS011;27586;51.124;4.182;2023-02-01T10:04:45;18.77;;;5.65;;
41903;SDS011;27586;51.124;4.182;2023-02-01T10:10:15;14.52;;;4.55;;
41903;SDS011;27586;51.124;4.182;2023-02-01T10:18:27;16.73;;;5.47;;
41903;SDS011;27586;51.124;4.182;2023-02-01T10:21:16;12.55;;;4.97;;
41903;SDS011;27586;51.124;4.182;2023-02-01T10:26:40;16.60;;;4.40;;
41903;SDS011;27586;51.124;4.182;2023-02-01T10:29:15;13.98;;;4.78;;
41903;SDS011;27586;51.124;4.182;2023-02-01T10:31:44;16.30;;;4.65;;
41903;SDS011;27586;51.124;4.182;2023-02-01T10:37:18;19.30;;;4.50;;
41903;SDS011;27586;51.124;4.182;2023-02-01T10:39:52;18.60;;;5.30;;
41903;SDS011;27586;51.124;4.182;2023-02-01T10:42:20;11.32;;;4.45;;
41903;SDS011;27586;51.124;4.182;2023-02-01T10:44:49;14.25;;;4.28;;
41903;SDS011;27586;51.124;4.182;2023-02-01T10:47:15;14.32;;;4.70;;
41903;SDS011;27586;51.124;4.182;2023-02-01T10:49:49;16.05;;;4.95;;
41903;SDS011;27586;51.124;4.182;2023-02-01T10:52:25;11.63;;;4.15;;
41903;SDS011;27586;51.124;4.182;2023-02-01T10:54:55;16.85;;;4.75;;
41903;SDS011;27586;51.124;4.182;2023-02-01T10:59:50;17.33;;;4.57;;
41903;SDS011;27586;51.124;4.182;2023-02-01T11:07:30;14.07;;;4.72;;
41903;SDS011;27586;51.124;4.182;2023-02-01T11:09:57;13.35;;;4.70;;
41903;SDS011;27586;51.124;4.182;2023-02-01T11:12:33;12.38;;;4.22;;
41903;SDS011;27586;51.124;4.182;2023-02-01T11:17:44;12.98;;;4.18;;
41903;SDS011;27586;51.124;4.182;2023-02-01T11:20:13;12.88;;;4.03;;
41903;SDS011;27586;51.124;4.182;2023-02-01T11:22:48;12.90;;;3.47;;
41903;SDS011;27586;51.124;4.182;2023-02-01T11:25:18;12.65;;;3.72;;
41903;SDS011;27586;51.124;4.182;2023-02-01T11:27:45;9.30;;;4.00;;
41903;SDS011;27586;51.124;4.182;2023-02-01T11:30:15;12.25;;;4.10;;
41903;SDS011;27586;51.124;4.182;2023-02-01T11:32:46;10.85;;;3.90;;
41903;SDS011;27586;51.124;4.182;2023-02-01T11:35:16;10.98;;;4.03;;
41903;SDS011;27586;51.124;4.182;2023-02-01T11:37:44;14.05;;;4.15;;
41903;SDS011;27586;51.124;4.182;2023-02-01T11:47:56;8.32;;;3.03;;
41903;SDS011;27586;51.124;4.182;2023-02-01T11:55:38;13.13;;;3.70;;
41903;SDS011;27586;51.124;4.182;2023-02-01T12:03:40;11.13;;;3.55;;
41903;SDS011;27586;51.124;4.182;2023-02-01T12:06:52;10.00;;;3.72;;
41903;SDS011;27586;51.124;4.182;2023-02-01T12:09:47;11.45;;;3.70;;
41903;SDS011;27586;51.124;4.182;2023-02-01T12:18:13;9.73;;;3.15;;
41903;SDS011;27586;51.124;4.182;2023-02-01T12:32:15;10.27;;;3.50;;
41903;SDS011;27586;51.124;4.182;2023-02-01T12:35:11;8.85;;;3.50;;
41903;SDS011;27586;51.124;4.182;2023-02-01T12:37:51;10.43;;;2.90;;
41903;SDS011;27586;51.124;4.182;2023-02-01T12:43:15;9.40;;;3.40;;
41903;SDS011;27586;51.124;4.182;2023-02-01T12:45:58;10.13;;;3.45;;
41903;SDS011;27586;51.124;4.182;2023-02-01T12:48:31;8.38;;;2.92;;
41903;SDS011;27586;51.124;4.182;2023-02-01T12:53:43;10.73;;;3.55;;
41903;SDS011;27586;51.124;4.182;2023-02-01T12:56:32;11.63;;;3.42;;
41903;SDS011;27586;51.124;4.182;2023-02-01T12:59:18;10.07;;;3.40;;
41903;SDS011;27586;51.124;4.182;2023-02-01T13:02:05;12.82;;;3.95;;
41903;SDS011;27586;51.124;4.182;2023-02-01T13:04:44;11.50;;;3.33;;
41903;SDS011;27586;51.124;4.182;2023-02-01T13:07:22;11.93;;;3.40;;
41903;SDS011;27586;51.124;4.182;2023-02-01T13:10:31;8.35;;;2.90;;
41903;SDS011;27586;51.124;4.182;2023-02-01T13:13:15;10.63;;;3.22;;
41903;SDS011;27586;51.124;4.182;2023-02-01T13:15:56;8.15;;;2.78;;
41903;SDS011;27586;51.124;4.182;2023-02-01T13:18:22;10.80;;;3.22;;
41903;SDS011;27586;51.124;4.182;2023-02-01T13:23:22;10.20;;;2.95;;
41903;SDS011;27586;51.124;4.182;2023-02-01T13:25:54;14.13;;;3.47;;
41903;SDS011;27586;51.124;4.182;2023-02-01T13:28:30;12.10;;;3.13;;
41903;SDS011;27586;51.124;4.182;2023-02-01T13:33:52;11.75;;;3.53;;
41903;SDS011;27586;51.124;4.182;2023-02-01T13:36:48;11.93;;;3.75;;
41903;SDS011;27586;51.124;4.182;2023-02-01T13:39:55;10.68;;;3.38;;
41903;SDS011;27586;51.124;4.182;2023-02-01T13:42:53;9.65;;;3.33;;
41903;SDS011;27586;51.124;4.182;2023-02-01T13:45:27;13.48;;;3.10;;
41903;SDS011;27586;51.124;4.182;2023-02-01T13:47:57;11.82;;;3.33;;
41903;SDS011;27586;51.124;4.182;2023-02-01T13:50:29;7.90;;;3.00;;
41903;SDS011;27586;51.124;4.182;2023-02-01T13:55:46;10.20;;;3.03;;
41903;SDS011;27586;51.124;4.182;2023-02-01T13:58:35;10.38;;;3.08;;
41903;SDS011;27586;51.124;4.182;2023-02-01T14:03:53;11.20;;;3.20;;
41903;SDS011;27586;51.124;4.182;2023-02-01T14:14:36;14.98;;;3.88;;
41903;SDS011;27586;51.124;4.182;2023-02-01T14:21:59;16.02;;;3.75;;
41903;SDS011;27586;51.124;4.182;2023-02-01T14:24:49;13.50;;;3.63;;
41903;SDS011;27586;51.124;4.182;2023-02-01T14:27:20;11.65;;;3.97;;
41903;SDS011;27586;51.124;4.182;2023-02-01T14:29:53;14.35;;;3.75;;
41903;SDS011;27586;51.124;4.182;2023-02-01T14:32:33;13.73;;;3.75;;
41903;SDS011;27586;51.124;4.182;2023-02-01T14:35:05;11.02;;;3.60;;
41903;SDS011;27586;51.124;4.182;2023-02-01T14:37:43;13.15;;;3.80;;
41903;SDS011;27586;51.124;4.182;2023-02-01T14:55:43;11.45;;;3.90;;
41903;SDS011;27586;51.124;4.182;2023-02-01T14:58:16;13.23;;;4.07;;
41903;SDS011;27586;51.124;4.182;2023-02-01T15:01:06;13.68;;;3.97;;
41903;SDS011;27586;51.124;4.182;2023-02-01T15:03:50;15.55;;;4.40;;
41903;SDS011;27586;51.124;4.182;2023-02-01T15:14:37;12.50;;;4.82;;
41903;SDS011;27586;51.124;4.182;2023-02-01T15:19:53;13.18;;;4.38;;
41903;SDS011;27586;51.124;4.182;2023-02-01T15:22:20;13.00;;;4.63;;
41903;SDS011;27586;51.124;4.182;2023-02-01T15:24:52;18.83;;;4.90;;
41903;SDS011;27586;51.124;4.182;2023-02-01T15:27:19;15.25;;;5.07;;
41903;SDS011;27586;51.124;4.182;2023-02-01T15:29:45;14.13;;;4.40;;
41903;SDS011;27586;51.124;4.182;2023-02-01T15:34:58;13.38;;;4.20;;
41903;SDS011;27586;51.124;4.182;2023-02-01T15:37:25;16.02;;;4.63;;
41903;SDS011;27586;51.124;4.182;2023-02-01T15:45:36;17.25;;;5.00;;
41903;SDS011;27586;51.124;4.182;2023-02-01T15:48:02;17.85;;;6.78;;
41903;SDS011;27586;51.124;4.182;2023-02-01T15:50:29;14.50;;;5.05;;
41903;SDS011;27586;51.124;4.182;2023-02-01T15:52:55;18.88;;;7.18;;
41903;SDS011;27586;51.124;4.182;2023-02-01T15:57:59;16.92;;;5.10;;
41903;SDS011;27586;51.124;4.182;2023-02-01T16:00:26;15.93;;;4.47;;
41903;SDS011;27586;51.124;4.182;2023-02-01T16:02:59;16.55;;;5.07;;
41903;SDS011;27586;51.124;4.182;2023-02-01T16:08:05;17.08;;;4.60;;
41903;SDS011;27586;51.124;4.182;2023-02-01T16:10:39;20.75;;;5.10;;
41903;SDS011;27586;51.124;4.182;2023-02-01T16:13:06;18.92;;;4.72;;
41903;SDS011;27586;51.124;4.182;2023-02-01T16:15:32;13.48;;;4.60;;
41903;SDS011;27586;51.124;4.182;2023-02-01T16:17:58;14.13;;;5.22;;
41903;SDS011;27586;51.124;4.182;2023-02-01T16:20:23;18.08;;;4.95;;
41903;SDS011;27586;51.124;4.182;2023-02-01T16:22:49;16.23;;;5.32;;
41903;SDS011;27586;51.124;4.182;2023-02-01T16:25:15;19.20;;;5.32;;
41903;SDS011;27586;51.124;4.182;2023-02-01T16:27:41;15.05;;;4.60;;
41903;SDS011;27586;51.124;4.182;2023-02-01T16:30:07;15.02;;;5.03;;
41903;SDS011;27586;51.124;4.182;2023-02-01T16:32:34;14.65;;;4.47;;
41903;SDS011;27586;51.124;4.182;2023-02-01T16:35:03;15.00;;;4.90;;
41903;SDS011;27586;51.124;4.182;2023-02-01T16:37:30;14.82;;;4.30;;
41903;SDS011;27586;51.124;4.182;2023-02-01T16:39:58;15.23;;;4.93;;
41903;SDS011;27586;51.124;4.182;2023-02-01T16:42:24;16.08;;;5.00;;
41903;SDS011;27586;51.124;4.182;2023-02-01T16:44:49;14.55;;;5.10;;
41903;SDS011;27586;51.124;4.182;2023-02-01T16:47:21;13.00;;;4.72;;
41903;SDS011;27586;51.124;4.182;2023-02-01T16:49:48;17.40;;;5.32;;
41903;SDS011;27586;51.124;4.182;2023-02-01T16:52:15;14.77;;;5.25;;
41903;SDS011;27586;51.124;4.182;2023-02-01T16:54:44;15.85;;;5.45;;
41903;SDS011;27586;51.124;4.182;2023-02-01T16:57:11;14.65;;;4.72;;
41903;SDS011;27586;51.124;4.182;2023-02-01T16:59:37;16.42;;;5.10;;
41903;SDS011;27586;51.124;4.182;2023-02-01T17:02:03;14.02;;;5.35;;
41903;SDS011;27586;51.124;4.182;2023-02-01T17:04:29;17.27;;;5.28;;
41903;SDS011;27586;51.124;4.182;2023-02-01T17:06:54;16.45;;;5.93;;
41903;SDS011;27586;51.124;4.182;2023-02-01T17:09:20;17.10;;;6.00;;
41903;SDS011;27586;51.124;4.182;2023-02-01T17:11:46;14.30;;;4.82;;
41903;SDS011;27586;51.124;4.182;2023-02-01T17:14:15;15.88;;;5.47;;
41903;SDS011;27586;51.124;4.182;2023-02-01T17:16:43;19.02;;;5.40;;
41903;SDS011;27586;51.124;4.182;2023-02-01T17:19:12;18.95;;;6.13;;
41903;SDS011;27586;51.124;4.182;2023-02-01T17:21:45;17.48;;;5.82;;
41903;SDS011;27586;51.124;4.182;2023-02-01T17:24:14;19.88;;;5.55;;
41903;SDS011;27586;51.124;4.182;2023-02-01T17:26:41;16.67;;;5.82;;
41903;SDS011;27586;51.124;4.182;2023-02-01T17:29:08;17.58;;;6.35;;
41903;SDS011;27586;51.124;4.182;2023-02-01T17:31:42;20.33;;;6.13;;
41903;SDS011;27586;51.124;4.182;2023-02-01T17:34:10;18.10;;;5.88;;
41903;SDS011;27586;51.124;4.182;2023-02-01T17:36:38;17.52;;;5.60;;
41903;SDS011;27586;51.124;4.182;2023-02-01T17:39:07;17.35;;;6.05;;
41903;SDS011;27586;51.124;4.182;2023-02-01T17:41:33;19.13;;;5.53;;
41903;SDS011;27586;51.124;4.182;2023-02-01T17:44:00;13.38;;;5.57;;
41903;SDS011;27586;51.124;4.182;2023-02-01T17:46:26;19.67;;;5.93;;
41903;SDS011;27586;51.124;4.182;2023-02-01T17:48:52;23.67;;;5.95;;